createdAt,value
2019-04-26T00:01:03.654Z,101222.97
2019-04-26T00:03:40.995Z,101229.73
2019-04-26T00:06:12.585Z,101222.23
2019-04-26T00:08:44.090Z,101218.45
2019-04-26T00:11:18.679Z,101220.56
2019-04-26T00:13:58.745Z,101221.61
2019-04-26T00:16:35.865Z,101220.86
2019-04-26T00:19:06.234Z,101219.42
2019-04-26T00:21:36.312Z,101215.39
2019-04-26T00:24:06.159Z,101210.37
2019-04-26T00:26:36.081Z,101207.25
2019-04-26T00:29:06.572Z,101207.84
2019-04-26T00:31:36.338Z,101210.31
2019-04-26T00:34:05.975Z,101211.94
2019-04-26T00:36:35.601Z,101206.89
2019-04-26T00:39:07.319Z,101207.47
2019-04-26T00:41:37.880Z,101203.75
2019-04-26T00:44:08.077Z,101204.80
2019-04-26T00:46:39.547Z,101202.10
2019-04-26T00:49:12.606Z,101204.95
2019-04-26T00:51:43.849Z,101196.17
2019-04-26T00:54:14.169Z,101190.25
2019-04-26T00:56:44.503Z,101193.73
2019-04-26T00:59:16.388Z,101195.64
2019-04-26T01:01:47.772Z,101190.71
2019-04-26T01:04:18.777Z,101188.14
2019-04-26T01:06:50.044Z,101182.87
2019-04-26T01:09:19.767Z,101185.36
2019-04-26T01:11:49.413Z,101181.68
2019-04-26T01:14:19.960Z,101178.34
2019-04-26T01:16:49.816Z,101176.47
2019-04-26T01:19:20.625Z,101178.95
2019-04-26T01:21:53.313Z,101177.75
2019-04-26T01:24:25.365Z,101173.35
2019-04-26T01:26:58.097Z,101178.38
2019-04-26T01:29:28.381Z,101176.63
2019-04-26T01:32:10.522Z,101172.37
2019-04-26T01:34:41.897Z,101176.98
2019-04-26T01:37:11.969Z,101175.81
2019-04-26T01:39:46.326Z,101173.13
2019-04-26T01:42:37.368Z,101177.26
2019-04-26T01:45:14.970Z,101177.39
2019-04-26T01:47:46.841Z,101175.40
2019-04-26T01:50:16.714Z,101174.20
2019-04-26T01:52:46.845Z,101176.44
2019-04-26T01:55:17.723Z,101173.58
2019-04-26T01:57:47.358Z,101174.38
2019-04-26T02:00:22.886Z,101170.48
2019-04-26T02:02:57.744Z,101175.91
2019-04-26T02:05:28.018Z,101171.98
2019-04-26T02:07:58.008Z,101167.17
2019-04-26T02:10:28.740Z,101170.24
2019-04-26T02:12:59.527Z,101169.53
2019-04-26T02:15:33.354Z,101169.00
2019-04-26T02:18:04.125Z,101161.99
2019-04-26T02:20:56.399Z,101164.39
2019-04-26T02:23:27.953Z,101161.17
2019-04-26T02:25:59.238Z,101158.31
2019-04-26T02:28:28.939Z,101162.73
2019-04-26T02:30:59.549Z,101166.42
2019-04-26T02:33:31.299Z,101162.91
2019-04-26T02:36:00.694Z,101159.43
2019-04-26T02:38:31.448Z,101164.36
2019-04-26T02:41:01.804Z,101160.51
2019-04-26T02:43:33.446Z,101162.25
2019-04-26T02:46:10.053Z,101151.22
2019-04-26T02:48:47.255Z,101157.09
2019-04-26T02:51:20.199Z,101152.42
2019-04-26T02:53:56.392Z,101145.95
2019-04-26T02:56:30.270Z,101149.94
2019-04-26T02:59:12.388Z,101143.32
2019-04-26T03:01:42.199Z,101140.54
2019-04-26T03:04:12.328Z,101134.59
2019-04-26T03:07:01.894Z,101134.80
2019-04-26T03:09:17.209Z,101133.61
2019-04-26T03:12:02.042Z,101131.37
2019-04-26T03:14:42.021Z,101125.23
2019-04-26T03:17:17.249Z,101121.98
2019-04-26T03:19:57.604Z,101115.95
2019-04-26T03:22:51.627Z,101119.69
2019-04-26T03:25:27.069Z,101113.02
2019-04-26T03:28:05.861Z,101121.52
2019-04-26T03:30:52.931Z,101119.84
2019-04-26T03:33:53.238Z,101124.13
2019-04-26T03:36:21.959Z,101118.87
2019-04-26T03:39:20.392Z,101118.26
2019-04-26T03:42:26.333Z,101116.67
2019-04-26T03:44:59.049Z,101115.37
2019-04-26T03:47:37.671Z,101117.76
2019-04-26T03:50:21.284Z,101114.04
2019-04-26T03:52:57.220Z,101111.37
2019-04-26T03:55:34.573Z,101112.66
2019-04-26T03:58:10.181Z,101110.77
2019-04-26T04:01:00.555Z,101109.35
2019-04-26T04:03:35.861Z,101110.70
2019-04-26T04:06:10.075Z,101103.09
2019-04-26T04:08:49.023Z,101112.25
2019-04-26T04:11:22.126Z,101109.48
2019-04-26T04:14:00.648Z,101103.42
2019-04-26T04:16:50.193Z,101102.70
2019-04-26T04:19:27.707Z,101109.38
2019-04-26T04:22:09.893Z,101103.59
2019-04-26T04:24:49.917Z,101105.52
2019-04-26T04:27:28.526Z,101101.22
2019-04-26T04:30:03.990Z,101108.27
2019-04-26T04:32:43.811Z,101104.67
2019-04-26T04:35:16.304Z,101099.38
2019-04-26T04:38:05.516Z,101103.68
2019-04-26T04:40:47.220Z,101104.84
2019-04-26T04:43:30.507Z,101099.17
2019-04-26T04:46:07.367Z,101101.74
2019-04-26T04:48:49.074Z,101096.50
2019-04-26T04:51:52.538Z,101093.27
2019-04-26T04:55:01.649Z,101088.89
2019-04-26T04:57:21.652Z,101086.58
2019-04-26T04:59:54.378Z,101087.66
2019-04-26T05:02:46.791Z,101082.78
2019-04-26T05:05:39.141Z,101079.09
2019-04-26T05:08:14.646Z,101073.67
2019-04-26T05:11:06.716Z,101075.92
2019-04-26T05:13:42.013Z,101075.27
2019-04-26T05:16:16.365Z,101081.50
2019-04-26T05:19:08.937Z,101082.46
2019-04-26T05:21:53.783Z,101075.50
2019-04-26T05:24:36.866Z,101071.91
2019-04-26T05:27:16.684Z,101080.10
2019-04-26T05:30:08.922Z,101084.95
2019-04-26T05:32:50.879Z,101087.42
2019-04-26T05:35:42.836Z,101090.45
2019-04-26T05:38:21.277Z,101093.02
2019-04-26T05:41:00.181Z,101092.89
2019-04-26T05:44:02.870Z,101087.22
2019-04-26T05:47:17.336Z,101096.91
2019-04-26T05:50:21.731Z,101098.30
2019-04-26T05:53:18.422Z,101101.48
2019-04-26T05:56:21.425Z,101103.47
2019-04-26T05:59:09.054Z,101104.55
2019-04-26T06:02:07.399Z,101103.52
2019-04-26T06:04:57.218Z,101098.53
2019-04-26T06:07:50.923Z,101108.88
2019-04-26T06:10:39.087Z,101104.97
2019-04-26T06:13:22.361Z,101098.00
2019-04-26T06:16:15.703Z,101100.27
2019-04-26T06:19:12.219Z,101095.74
2019-04-26T06:22:10.604Z,101092.41
2019-04-26T06:25:00.429Z,101091.61
2019-04-26T06:27:46.157Z,101090.48
2019-04-26T06:30:19.445Z,101078.69
2019-04-26T06:33:16.395Z,101078.84
2019-04-26T06:35:49.526Z,101074.41
2019-04-26T06:38:50.849Z,101069.31
2019-04-26T06:42:05.338Z,101067.69
2019-04-26T06:44:39.630Z,101063.61
2019-04-26T06:47:19.891Z,101069.17
2019-04-26T06:49:59.825Z,101063.44
2019-04-26T06:52:32.627Z,101058.31
2019-04-26T06:55:09.969Z,101061.30
2019-04-26T06:58:03.437Z,101055.73
2019-04-26T07:01:01.120Z,101050.61
2019-04-26T07:03:45.920Z,101051.56
2019-04-26T07:06:18.680Z,101053.23
2019-04-26T07:08:57.605Z,101058.38
2019-04-26T07:11:48.066Z,101046.34
2019-04-26T07:14:37.539Z,101051.07
2019-04-26T07:17:12.912Z,101051.44
2019-04-26T07:20:06.168Z,101050.28
2019-04-26T07:23:06.177Z,101055.80
2019-04-26T07:25:57.860Z,101056.03
2019-04-26T07:28:50.146Z,101049.26
2019-04-26T07:31:38.157Z,101048.23
2019-04-26T07:34:42.325Z,101047.30
2019-04-26T07:37:37.706Z,101041.60
2019-04-26T07:40:32.726Z,101046.51
2019-04-26T07:43:30.019Z,101046.75
2019-04-26T07:46:23.833Z,101037.84
2019-04-26T07:49:12.544Z,101033.98
2019-04-26T07:52:10.900Z,101031.97
2019-04-26T07:55:11.098Z,101031.02
2019-04-26T07:58:01.187Z,101034.39
2019-04-26T08:00:44.637Z,101030.98
2019-04-26T08:03:13.793Z,101027.22
2019-04-26T08:05:57.828Z,101028.98
2019-04-26T08:08:30.518Z,101027.55
2019-04-26T08:11:12.864Z,101019.81
2019-04-26T08:13:57.763Z,101017.92
2019-04-26T08:16:48.356Z,101015.63
2019-04-26T08:19:22.039Z,101011.45
2019-04-26T08:21:54.588Z,101013.63
2019-04-26T08:24:28.338Z,101010.73
2019-04-26T08:27:19.664Z,101006.92
2019-04-26T08:29:44.178Z,101008.75
2019-04-26T08:32:18.559Z,100996.27
2019-04-26T08:34:56.692Z,100999.91
2019-04-26T08:37:49.395Z,100998.80
2019-04-26T08:40:30.255Z,100991.55
2019-04-26T08:43:12.297Z,100998.39
2019-04-26T08:46:03.094Z,100993.70
2019-04-26T08:48:51.624Z,100991.44
2019-04-26T08:51:25.321Z,100991.92
2019-04-26T08:53:55.987Z,100993.84
2019-04-26T08:56:28.998Z,100992.41
2019-04-26T08:59:04.790Z,100989.89
2019-04-26T09:01:41.993Z,100993.27
2019-04-26T09:04:15.870Z,100989.46
2019-04-26T09:07:02.700Z,100981.78
2019-04-26T09:09:36.016Z,100983.89
2019-04-26T09:12:09.888Z,100982.41
2019-04-26T09:14:42.730Z,100975.58
2019-04-26T09:17:12.434Z,100981.38
2019-04-26T09:19:42.070Z,100976.53
2019-04-26T09:22:26.435Z,100967.38
2019-04-26T09:25:10.689Z,100963.56
2019-04-26T09:27:58.955Z,100967.26
2019-04-26T09:30:42.331Z,100956.53
2019-04-26T09:33:21.176Z,100956.53
2019-04-26T09:35:50.851Z,100959.98
2019-04-26T09:38:20.551Z,100958.56
2019-04-26T09:40:52.755Z,100953.25
2019-04-26T09:43:35.349Z,100953.25
2019-04-26T09:46:12.656Z,100952.20
2019-04-26T09:48:43.916Z,100946.68
2019-04-26T09:51:13.655Z,100946.68
2019-04-26T09:53:44.692Z,100941.21
2019-04-26T09:56:14.487Z,100942.69
2019-04-26T09:58:44.265Z,100942.69
2019-04-26T10:01:14.066Z,100933.50
2019-04-26T10:03:43.708Z,100930.78
2019-04-26T10:06:13.387Z,100932.73
2019-04-26T10:08:43.334Z,100936.14
2019-04-26T10:11:16.008Z,100935.22
2019-04-26T10:13:49.896Z,100930.57
2019-04-26T10:16:27.265Z,100929.63
2019-04-26T10:18:59.413Z,100923.62
2019-04-26T10:21:29.457Z,100920.45
2019-04-26T10:23:59.260Z,100923.73
2019-04-26T10:26:29.969Z,100915.53
2019-04-26T10:29:01.323Z,100920.48
2019-04-26T10:31:31.321Z,100910.65
2019-04-26T10:34:01.018Z,100913.00
2019-04-26T10:36:32.461Z,100907.46
2019-04-26T10:39:02.083Z,100906.73
2019-04-26T10:41:31.746Z,100906.27
2019-04-26T10:44:01.470Z,100904.20
2019-04-26T10:46:31.387Z,100909.30
2019-04-26T10:49:08.553Z,100906.58
2019-04-26T10:51:38.623Z,100908.26
2019-04-26T10:54:10.408Z,100909.09
2019-04-26T10:56:44.667Z,100907.49
2019-04-26T10:59:15.939Z,100906.23
2019-04-26T11:01:45.671Z,100900.44
2019-04-26T11:04:15.455Z,100899.66
2019-04-26T11:06:45.175Z,100899.86
2019-04-26T11:09:14.879Z,100896.59
2019-04-26T11:11:44.514Z,100897.75
2019-04-26T11:14:18.301Z,100891.60
2019-04-26T11:16:45.507Z,100898.30
2019-04-26T11:19:15.476Z,100905.95
2019-04-26T11:21:45.355Z,100901.61
2019-04-26T11:24:19.053Z,100908.00
2019-04-26T11:26:46.414Z,100898.47
2019-04-26T11:29:16.092Z,100895.39
2019-04-26T11:31:45.737Z,100895.90
2019-04-26T11:34:15.535Z,100893.64
2019-04-26T11:36:45.339Z,100886.19
2019-04-26T11:39:16.627Z,100899.34
2019-04-26T11:41:46.531Z,100895.28
2019-04-26T11:44:16.214Z,100897.40
2019-04-26T11:46:46.007Z,100889.33
2019-04-26T11:49:15.658Z,100887.91
2019-04-26T11:51:45.386Z,100885.36
2019-04-26T11:54:17.045Z,100887.55
2019-04-26T11:56:46.812Z,100885.19
2019-04-26T11:59:16.551Z,100886.36
2019-04-26T12:01:46.209Z,100886.56
2019-04-26T12:04:20.275Z,100884.28
2019-04-26T12:07:03.957Z,100890.48
2019-04-26T12:09:35.364Z,100880.91
2019-04-26T12:12:09.102Z,100876.83
2019-04-26T12:14:36.980Z,100876.84
2019-04-26T12:17:06.613Z,100875.40
2019-04-26T12:19:36.413Z,100876.59
2019-04-26T12:22:08.278Z,100879.70
2019-04-26T12:24:37.616Z,100873.34
2019-04-26T12:27:10.211Z,100870.92
2019-04-26T12:29:38.795Z,100864.65
2019-04-26T12:32:08.424Z,100866.66
2019-04-26T12:34:38.050Z,100864.17
2019-04-26T12:37:07.776Z,100870.38
2019-04-26T12:39:40.709Z,100867.20
2019-04-26T12:42:12.351Z,100868.91
2019-04-26T12:44:52.615Z,100870.55
2019-04-26T12:47:23.938Z,100872.48
2019-04-26T12:49:54.593Z,100869.16
2019-04-26T12:52:24.969Z,100866.94
2019-04-26T12:54:57.588Z,100867.36
2019-04-26T12:57:26.305Z,100867.58
2019-04-26T12:59:57.667Z,100867.94
2019-04-26T13:02:27.631Z,100872.52
2019-04-26T13:04:57.329Z,100864.06
2019-04-26T13:07:27.040Z,100868.64
2019-04-26T13:10:04.307Z,100867.48
2019-04-26T13:12:52.097Z,100868.09
2019-04-26T13:16:04.239Z,100859.63
2019-04-26T13:18:34.065Z,100861.27
2019-04-26T13:21:04.368Z,100850.03
2019-04-26T13:23:34.316Z,100844.34
2019-04-26T13:26:04.170Z,100843.02
2019-04-26T13:28:33.873Z,100847.44
2019-04-26T13:31:03.529Z,100849.90
2019-04-26T13:33:33.219Z,100852.84
2019-04-26T13:36:03.331Z,100848.11
2019-04-26T13:38:33.219Z,100847.30
2019-04-26T13:41:04.629Z,100848.43
2019-04-26T13:43:34.363Z,100849.38
2019-04-26T13:46:08.443Z,100848.22
2019-04-26T13:48:43.649Z,100857.06
2019-04-26T13:51:18.212Z,100844.52
2019-04-26T13:53:47.892Z,100838.77
2019-04-26T13:56:17.532Z,100842.48
2019-04-26T13:58:47.982Z,100843.51
2019-04-26T14:01:18.599Z,100835.94
2019-04-26T14:03:49.566Z,100842.34
2019-04-26T14:06:19.273Z,100835.61
2019-04-26T14:08:48.987Z,100841.34
2019-04-26T14:11:20.073Z,100838.98
2019-04-26T14:13:50.018Z,100837.16
2019-04-26T14:16:21.218Z,100836.03
2019-04-26T14:18:51.086Z,100831.99
2019-04-26T14:21:20.737Z,100832.56
2019-04-26T14:23:54.787Z,100834.07
2019-04-26T14:26:41.552Z,100827.27
2019-04-26T14:29:11.430Z,100827.93
2019-04-26T14:31:41.126Z,100827.31
2019-04-26T14:34:12.101Z,100818.61
2019-04-26T14:36:43.701Z,100811.97
2019-04-26T14:39:14.882Z,100817.57
2019-04-26T14:41:44.737Z,100813.42
2019-04-26T14:44:15.997Z,100816.11
2019-04-26T14:46:48.951Z,100812.19
2019-04-26T14:49:19.129Z,100808.77
2019-04-26T14:51:53.923Z,100809.38
2019-04-26T14:54:21.893Z,100809.20
2019-04-26T14:56:52.547Z,100811.17
2019-04-26T14:59:44.344Z,100808.88
2019-04-26T15:02:26.085Z,100808.56
2019-04-26T15:05:16.821Z,100797.42
2019-04-26T15:07:51.064Z,100800.09
2019-04-26T15:10:20.577Z,100797.52
2019-04-26T15:12:58.352Z,100793.98
2019-04-26T15:15:21.642Z,100787.06
2019-04-26T15:17:55.148Z,100789.13
2019-04-26T15:20:24.394Z,100790.27
2019-04-26T15:22:54.133Z,100789.89
2019-04-26T15:25:23.751Z,100780.67
2019-04-26T15:27:54.527Z,100776.48
2019-04-26T15:30:24.645Z,100776.70
2019-04-26T15:32:56.234Z,100776.03
2019-04-26T15:35:28.347Z,100768.91
2019-04-26T15:38:01.454Z,100769.81
2019-04-26T15:40:48.522Z,100767.61
2019-04-26T15:43:25.850Z,100771.89
2019-04-26T15:45:59.984Z,100774.06
2019-04-26T15:48:50.309Z,100772.38
2019-04-26T15:51:24.461Z,100766.84
2019-04-26T15:53:53.089Z,100760.67
2019-04-26T15:56:24.449Z,100764.76
2019-04-26T15:58:54.119Z,100764.62
2019-04-26T16:01:24.497Z,100756.88
2019-04-26T16:03:55.310Z,100750.45
2019-04-26T16:06:25.148Z,100758.38
2019-04-26T16:08:55.737Z,100754.42
2019-04-26T16:11:25.838Z,100750.70
2019-04-26T16:13:56.615Z,100748.90
2019-04-26T16:16:29.188Z,100746.91
2019-04-26T16:18:59.181Z,100744.86
2019-04-26T16:21:28.890Z,100745.55
2019-04-26T16:23:58.552Z,100743.98
2019-04-26T16:26:30.411Z,100749.91
2019-04-26T16:29:05.157Z,100740.25
2019-04-26T16:31:53.315Z,100741.52
2019-04-26T16:34:26.247Z,100743.56
2019-04-26T16:36:59.686Z,100752.17
2019-04-26T16:39:38.348Z,100744.95
2019-04-26T16:42:05.028Z,100748.45
2019-04-26T16:44:33.483Z,100752.54
2019-04-26T16:47:05.984Z,100750.67
2019-04-26T16:49:42.054Z,100748.23
2019-04-26T16:52:07.533Z,100746.64
2019-04-26T16:54:37.299Z,100745.34
2019-04-26T16:57:11.410Z,100745.33
2019-04-26T16:59:46.625Z,100747.78
2019-04-26T17:02:09.718Z,100745.83
2019-04-26T17:04:40.572Z,100747.30
2019-04-26T17:07:10.211Z,100745.48
2019-04-26T17:09:57.168Z,100749.86
2019-04-26T17:12:15.070Z,100750.47
2019-04-26T17:14:47.514Z,100752.56
2019-04-26T17:17:14.438Z,100750.77
2019-04-26T17:19:44.108Z,100753.64
2019-04-26T17:22:24.487Z,100755.37
2019-04-26T17:24:55.827Z,100755.67
2019-04-26T17:27:26.405Z,100758.73
2019-04-26T17:29:56.039Z,100751.72
2019-04-26T17:32:25.776Z,100751.84
2019-04-26T17:34:59.748Z,100744.34
2019-04-26T17:37:30.533Z,100746.57
2019-04-26T17:40:00.834Z,100747.67
2019-04-26T17:42:36.502Z,100739.69
2019-04-26T17:45:06.791Z,100742.91
2019-04-26T17:47:36.745Z,100745.16
2019-04-26T17:50:06.543Z,100739.30
2019-04-26T17:52:37.790Z,100741.52
2019-04-26T17:55:14.242Z,100747.80
2019-04-26T17:57:48.364Z,100739.47
2019-04-26T18:00:20.805Z,100741.69
2019-04-26T18:02:50.729Z,100740.28
2019-04-26T18:05:24.465Z,100738.30
2019-04-26T18:07:58.450Z,100742.45
2019-04-26T18:10:23.962Z,100744.48
2019-04-26T18:12:54.572Z,100749.92
2019-04-26T18:15:24.341Z,100750.31
2019-04-26T18:17:55.632Z,100752.55
2019-04-26T18:20:26.901Z,100755.09
2019-04-26T18:23:10.015Z,100757.29
2019-04-26T18:25:41.203Z,100748.81
2019-04-26T18:28:13.240Z,100754.90
2019-04-26T18:30:44.864Z,100748.54
2019-04-26T18:33:17.545Z,100742.14
2019-04-26T18:35:49.235Z,100753.06
2019-04-26T18:38:17.254Z,100753.06
2019-04-26T18:41:00.014Z,100743.71
2019-04-26T18:43:23.893Z,100747.17
2019-04-26T18:45:53.178Z,100747.17
2019-04-26T18:48:23.630Z,100738.27
2019-04-26T18:50:53.363Z,100741.94
2019-04-26T18:53:24.712Z,100738.00
2019-04-26T18:55:54.824Z,100740.41
2019-04-26T18:58:24.525Z,100732.59
2019-04-26T19:00:57.455Z,100744.45
2019-04-26T19:03:29.942Z,100750.09
2019-04-26T19:05:58.418Z,100741.50
2019-04-26T19:08:28.966Z,100743.66
2019-04-26T19:11:03.044Z,100748.55
2019-04-26T19:13:44.958Z,100748.64
2019-04-26T19:16:25.005Z,100743.28
2019-04-26T19:18:56.320Z,100742.27
2019-04-26T19:21:39.015Z,100745.86
2019-04-26T19:24:11.526Z,100744.25
2019-04-26T19:26:36.756Z,100738.55
2019-04-26T19:29:17.515Z,100751.47
2019-04-26T19:31:37.862Z,100744.53
2019-04-26T19:34:07.508Z,100747.59
2019-04-26T19:36:37.141Z,100748.89
2019-04-26T19:39:07.849Z,100746.62
2019-04-26T19:41:37.484Z,100746.58
2019-04-26T19:44:07.124Z,100744.40
2019-04-26T19:46:38.886Z,100749.22
2019-04-26T19:49:30.028Z,100748.84
2019-04-26T19:52:04.703Z,100750.46
2019-04-26T19:54:38.705Z,100750.39
2019-04-26T19:57:15.675Z,100749.37
2019-04-26T19:59:45.315Z,100747.19
2019-04-26T20:02:17.176Z,100746.80
2019-04-26T20:04:47.109Z,100741.44
2019-04-26T20:07:16.805Z,100734.44
2019-04-26T20:09:46.406Z,100729.55
2019-04-26T20:12:16.287Z,100720.97
2019-04-26T20:14:51.093Z,100721.25
2019-04-26T20:17:20.351Z,100720.47
2019-04-26T20:19:53.957Z,100718.13
2019-04-26T20:22:28.436Z,100711.95
2019-04-26T20:24:57.660Z,100714.93
2019-04-26T20:27:27.981Z,100713.17
2019-04-26T20:30:02.154Z,100703.50
2019-04-26T20:32:33.681Z,100707.72
2019-04-26T20:35:14.713Z,100702.22
2019-04-26T20:37:45.156Z,100704.05
2019-04-26T20:40:22.249Z,100697.05
2019-04-26T20:42:48.485Z,100701.27
2019-04-26T20:45:19.298Z,100700.84
2019-04-26T20:47:51.993Z,100701.36
2019-04-26T20:50:21.771Z,100701.46
2019-04-26T20:52:55.527Z,100690.41
2019-04-26T20:55:30.389Z,100695.52
2019-04-26T20:57:59.882Z,100690.27
2019-04-26T21:00:31.623Z,100683.55
2019-04-26T21:03:05.780Z,100684.27
2019-04-26T21:05:45.347Z,100682.62
2019-04-26T21:08:04.481Z,100679.62
2019-04-26T21:10:35.906Z,100669.78
2019-04-26T21:13:05.812Z,100664.63
2019-04-26T21:15:36.134Z,100670.02
2019-04-26T21:18:05.973Z,100672.30
2019-04-26T21:20:36.571Z,100665.86
2019-04-26T21:23:06.407Z,100661.05
2019-04-26T21:25:43.768Z,100665.86
2019-04-26T21:28:17.460Z,100665.66
2019-04-26T21:31:03.479Z,100655.63
2019-04-26T21:33:38.755Z,100652.73
2019-04-26T21:36:06.536Z,100657.92
2019-04-26T21:38:43.951Z,100653.96
2019-04-26T21:41:18.395Z,100657.13
2019-04-26T21:43:48.268Z,100654.58
2019-04-26T21:46:19.219Z,100649.05
2019-04-26T21:48:49.372Z,100652.05
2019-04-26T21:51:19.005Z,100650.84
2019-04-26T21:53:48.639Z,100651.15
2019-04-26T21:56:18.338Z,100651.82
2019-04-26T21:58:48.165Z,100646.92
2019-04-26T22:01:21.136Z,100645.52
2019-04-26T22:03:57.038Z,100644.23
2019-04-26T22:06:27.274Z,100650.94
2019-04-26T22:08:58.693Z,100646.80
2019-04-26T22:11:26.669Z,100639.07
2019-04-26T22:13:58.018Z,100644.39
2019-04-26T22:16:35.951Z,100638.72
2019-04-26T22:19:23.907Z,100641.00
2019-04-26T22:22:06.840Z,100641.58
2019-04-26T22:24:40.385Z,100634.67
2019-04-26T22:27:10.080Z,100635.66
2019-04-26T22:29:39.793Z,100642.46
2019-04-26T22:32:11.579Z,100639.43
2019-04-26T22:34:46.037Z,100641.55
2019-04-26T22:37:18.915Z,100645.24
2019-04-26T22:39:47.548Z,100639.52
2019-04-26T22:42:17.877Z,100636.09
2019-04-26T22:44:49.162Z,100636.08
2019-04-26T22:47:20.475Z,100631.51
2019-04-26T22:49:50.122Z,100630.36
2019-04-26T22:52:19.826Z,100630.11
2019-04-26T22:54:49.525Z,100625.32
2019-04-26T22:57:19.419Z,100617.24
2019-04-26T22:59:50.510Z,100613.42
2019-04-26T23:02:25.395Z,100612.44
2019-04-26T23:04:56.054Z,100613.94
2019-04-26T23:07:26.126Z,100613.87
2019-04-26T23:09:55.422Z,100608.37
2019-04-26T23:12:44.066Z,100608.58
2019-04-26T23:15:30.226Z,100607.51
2019-04-26T23:18:08.210Z,100605.50
2019-04-26T23:20:39.828Z,100602.65
2019-04-26T23:23:09.525Z,100600.80
2019-04-26T23:25:39.240Z,100601.62
2019-04-26T23:28:09.224Z,100596.25
2019-04-26T23:30:38.941Z,100598.69
2019-04-26T23:33:08.748Z,100599.40
2019-04-26T23:35:43.519Z,100598.44
2019-04-26T23:38:09.762Z,100599.86
2019-04-26T23:40:39.401Z,100589.93
2019-04-26T23:43:09.367Z,100588.39
2019-04-26T23:45:41.999Z,100589.21
2019-04-26T23:48:12.100Z,100584.67
2019-04-26T23:50:42.970Z,100586.75
2019-04-26T23:53:13.874Z,100580.11
2019-04-26T23:55:45.316Z,100580.71
2019-04-26T23:58:15.961Z,100578.25
